sensor_id;sensor_type;location;lat;lon;timestamp;P1;durP1;ratioP1;P2;durP2;ratioP2
22191;SDS011;11261;52.456;10.850;2023-05-21T00:01:03;4.82;;;4.22;;
22191;SDS011;11261;52.456;10.850;2023-05-21T00:03:32;7.80;;;4.03;;
22191;SDS011;11261;52.456;10.850;2023-05-21T00:06:01;6.70;;;4.50;;
22191;SDS011;11261;52.456;10.850;2023-05-21T00:08:30;7.00;;;4.47;;
22191;SDS011;11261;52.456;10.850;2023-05-21T00:10:59;5.95;;;4.78;;
22191;SDS011;11261;52.456;10.850;2023-05-21T00:13:28;5.85;;;3.92;;
22191;SDS011;11261;52.456;10.850;2023-05-21T00:15:57;6.20;;;4.45;;
22191;SDS011;11261;52.456;10.850;2023-05-21T00:18:26;7.88;;;5.05;;
22191;SDS011;11261;52.456;10.850;2023-05-21T00:20:58;7.70;;;4.47;;
22191;SDS011;11261;52.456;10.850;2023-05-21T00:23:27;6.22;;;3.92;;
22191;SDS011;11261;52.456;10.850;2023-05-21T00:25:58;6.97;;;4.50;;
22191;SDS011;11261;52.456;10.850;2023-05-21T00:28:29;7.13;;;4.22;;
22191;SDS011;11261;52.456;10.850;2023-05-21T00:30:59;5.18;;;3.75;;
22191;SDS011;11261;52.456;10.850;2023-05-21T00:33:27;7.57;;;4.05;;
22191;SDS011;11261;52.456;10.850;2023-05-21T00:35:56;6.45;;;4.82;;
22191;SDS011;11261;52.456;10.850;2023-05-21T00:38:25;7.10;;;4.55;;
22191;SDS011;11261;52.456;10.850;2023-05-21T00:40:54;6.18;;;4.53;;
22191;SDS011;11261;52.456;10.850;2023-05-21T00:43:22;8.85;;;5.03;;
22191;SDS011;11261;52.456;10.850;2023-05-21T00:45:52;7.63;;;4.43;;
22191;SDS011;11261;52.456;10.850;2023-05-21T00:48:23;5.88;;;4.03;;
22191;SDS011;11261;52.456;10.850;2023-05-21T00:50:53;7.25;;;4.00;;
22191;SDS011;11261;52.456;10.850;2023-05-21T00:53:22;7.25;;;4.25;;
22191;SDS011;11261;52.456;10.850;2023-05-21T00:55:50;5.30;;;4.20;;
22191;SDS011;11261;52.456;10.850;2023-05-21T00:58:19;5.25;;;3.95;;
22191;SDS011;11261;52.456;10.850;2023-05-21T01:00:47;5.75;;;4.28;;
22191;SDS011;11261;52.456;10.850;2023-05-21T01:03:16;7.25;;;3.88;;
22191;SDS011;11261;52.456;10.850;2023-05-21T01:05:46;5.47;;;3.92;;
22191;SDS011;11261;52.456;10.850;2023-05-21T01:08:54;5.72;;;4.28;;
22191;SDS011;11261;52.456;10.850;2023-05-21T01:11:24;6.38;;;3.25;;
22191;SDS011;11261;52.456;10.850;2023-05-21T01:14:03;7.47;;;3.95;;
22191;SDS011;11261;52.456;10.850;2023-05-21T01:16:35;5.47;;;3.65;;
22191;SDS011;11261;52.456;10.850;2023-05-21T01:19:04;4.90;;;3.47;;
22191;SDS011;11261;52.456;10.850;2023-05-21T01:21:39;5.60;;;3.83;;
22191;SDS011;11261;52.456;10.850;2023-05-21T01:24:12;6.50;;;3.63;;
22191;SDS011;11261;52.456;10.850;2023-05-21T01:26:40;8.10;;;3.38;;
22191;SDS011;11261;52.456;10.850;2023-05-21T01:29:09;8.38;;;3.47;;
22191;SDS011;11261;52.456;10.850;2023-05-21T01:31:42;5.47;;;3.28;;
22191;SDS011;11261;52.456;10.850;2023-05-21T01:34:19;6.60;;;4.18;;
22191;SDS011;11261;52.456;10.850;2023-05-21T01:36:56;5.72;;;4.05;;
22191;SDS011;11261;52.456;10.850;2023-05-21T01:39:32;10.07;;;4.40;;
22191;SDS011;11261;52.456;10.850;2023-05-21T01:42:05;5.32;;;3.60;;
22191;SDS011;11261;52.456;10.850;2023-05-21T01:44:36;6.00;;;3.72;;
22191;SDS011;11261;52.456;10.850;2023-05-21T01:47:06;4.47;;;3.65;;
22191;SDS011;11261;52.456;10.850;2023-05-21T01:49:36;5.97;;;3.58;;
22191;SDS011;11261;52.456;10.850;2023-05-21T01:52:05;5.75;;;3.90;;
22191;SDS011;11261;52.456;10.850;2023-05-21T01:54:35;8.32;;;3.83;;
22191;SDS011;11261;52.456;10.850;2023-05-21T01:57:03;7.05;;;3.63;;
22191;SDS011;11261;52.456;10.850;2023-05-21T01:59:32;7.05;;;3.80;;
22191;SDS011;11261;52.456;10.850;2023-05-21T02:02:02;6.47;;;3.67;;
22191;SDS011;11261;52.456;10.850;2023-05-21T02:04:30;6.05;;;3.83;;
22191;SDS011;11261;52.456;10.850;2023-05-21T02:06:58;5.30;;;3.90;;
22191;SDS011;11261;52.456;10.850;2023-05-21T02:09:27;5.57;;;3.55;;
22191;SDS011;11261;52.456;10.850;2023-05-21T02:11:57;4.60;;;3.20;;
22191;SDS011;11261;52.456;10.850;2023-05-21T02:14:25;5.15;;;3.25;;
22191;SDS011;11261;52.456;10.850;2023-05-21T02:16:55;4.45;;;2.85;;
22191;SDS011;11261;52.456;10.850;2023-05-21T02:19:23;5.10;;;3.33;;
22191;SDS011;11261;52.456;10.850;2023-05-21T02:21:51;6.70;;;3.63;;
22191;SDS011;11261;52.456;10.850;2023-05-21T02:24:20;5.65;;;3.75;;
22191;SDS011;11261;52.456;10.850;2023-05-21T02:26:49;4.20;;;3.13;;
22191;SDS011;11261;52.456;10.850;2023-05-21T02:29:19;5.85;;;3.65;;
22191;SDS011;11261;52.456;10.850;2023-05-21T02:31:48;5.10;;;2.90;;
22191;SDS011;11261;52.456;10.850;2023-05-21T02:34:17;7.40;;;3.15;;
22191;SDS011;11261;52.456;10.850;2023-05-21T02:36:46;4.60;;;3.25;;
22191;SDS011;11261;52.456;10.850;2023-05-21T02:39:17;5.93;;;3.38;;
22191;SDS011;11261;52.456;10.850;2023-05-21T02:41:46;5.40;;;3.47;;
22191;SDS011;11261;52.456;10.850;2023-05-21T02:44:14;4.45;;;3.13;;
22191;SDS011;11261;52.456;10.850;2023-05-21T02:46:45;5.45;;;3.50;;
22191;SDS011;11261;52.456;10.850;2023-05-21T02:49:14;6.35;;;3.42;;
22191;SDS011;11261;52.456;10.850;2023-05-21T02:51:43;5.53;;;3.17;;
22191;SDS011;11261;52.456;10.850;2023-05-21T02:54:11;7.40;;;3.53;;
22191;SDS011;11261;52.456;10.850;2023-05-21T02:56:40;4.53;;;3.22;;
22191;SDS011;11261;52.456;10.850;2023-05-21T02:59:08;6.47;;;3.42;;
22191;SDS011;11261;52.456;10.850;2023-05-21T03:01:36;4.43;;;3.03;;
22191;SDS011;11261;52.456;10.850;2023-05-21T03:04:08;4.80;;;3.25;;
22191;SDS011;11261;52.456;10.850;2023-05-21T03:06:36;4.15;;;2.95;;
22191;SDS011;11261;52.456;10.850;2023-05-21T03:09:04;5.80;;;3.22;;
22191;SDS011;11261;52.456;10.850;2023-05-21T03:11:33;4.50;;;2.85;;
22191;SDS011;11261;52.456;10.850;2023-05-21T03:14:01;5.68;;;3.67;;
22191;SDS011;11261;52.456;10.850;2023-05-21T03:16:29;3.65;;;2.83;;
22191;SDS011;11261;52.456;10.850;2023-05-21T03:19:00;9.50;;;3.67;;
22191;SDS011;11261;52.456;10.850;2023-05-21T03:21:30;4.38;;;3.35;;
22191;SDS011;11261;52.456;10.850;2023-05-21T03:23:59;6.57;;;3.10;;
22191;SDS011;11261;52.456;10.850;2023-05-21T03:26:27;5.10;;;3.63;;
22191;SDS011;11261;52.456;10.850;2023-05-21T03:28:56;7.82;;;2.97;;
22191;SDS011;11261;52.456;10.850;2023-05-21T03:31:25;4.47;;;3.15;;
22191;SDS011;11261;52.456;10.850;2023-05-21T03:33:53;5.10;;;3.15;;
22191;SDS011;11261;52.456;10.850;2023-05-21T03:36:21;6.10;;;3.42;;
22191;SDS011;11261;52.456;10.850;2023-05-21T03:38:51;6.63;;;4.30;;
22191;SDS011;11261;52.456;10.850;2023-05-21T03:41:19;7.90;;;3.80;;
22191;SDS011;11261;52.456;10.850;2023-05-21T03:43:48;5.03;;;3.85;;
22191;SDS011;11261;52.456;10.850;2023-05-21T03:46:16;6.43;;;4.07;;
22191;SDS011;11261;52.456;10.850;2023-05-21T03:48:44;8.10;;;3.55;;
22191;SDS011;11261;52.456;10.850;2023-05-21T03:51:13;7.15;;;3.95;;
22191;SDS011;11261;52.456;10.850;2023-05-21T03:53:43;5.60;;;3.58;;
22191;SDS011;11261;52.456;10.850;2023-05-21T03:56:13;5.63;;;3.10;;
22191;SDS011;11261;52.456;10.850;2023-05-21T03:58:41;4.57;;;3.40;;
22191;SDS011;11261;52.456;10.850;2023-05-21T04:01:09;6.40;;;3.55;;
22191;SDS011;11261;52.456;10.850;2023-05-21T04:03:38;4.97;;;3.03;;
22191;SDS011;11261;52.456;10.850;2023-05-21T04:06:07;6.85;;;3.45;;
22191;SDS011;11261;52.456;10.850;2023-05-21T04:08:36;6.05;;;4.10;;
22191;SDS011;11261;52.456;10.850;2023-05-21T04:11:04;5.68;;;3.38;;
22191;SDS011;11261;52.456;10.850;2023-05-21T04:13:34;7.53;;;4.00;;
22191;SDS011;11261;52.456;10.850;2023-05-21T04:16:03;7.40;;;4.38;;
22191;SDS011;11261;52.456;10.850;2023-05-21T04:18:34;5.72;;;4.53;;
22191;SDS011;11261;52.456;10.850;2023-05-21T04:21:02;8.32;;;4.22;;
22191;SDS011;11261;52.456;10.850;2023-05-21T04:23:31;6.30;;;3.72;;
22191;SDS011;11261;52.456;10.850;2023-05-21T04:26:02;6.68;;;4.22;;
22191;SDS011;11261;52.456;10.850;2023-05-21T04:28:30;7.20;;;3.92;;
22191;SDS011;11261;52.456;10.850;2023-05-21T04:30:59;8.13;;;5.13;;
22191;SDS011;11261;52.456;10.850;2023-05-21T04:33:28;9.05;;;5.00;;
22191;SDS011;11261;52.456;10.850;2023-05-21T04:35:56;5.13;;;4.05;;
22191;SDS011;11261;52.456;10.850;2023-05-21T04:38:24;7.55;;;4.47;;
22191;SDS011;11261;52.456;10.850;2023-05-21T04:40:52;5.03;;;3.67;;
22191;SDS011;11261;52.456;10.850;2023-05-21T04:43:21;5.75;;;4.10;;
22191;SDS011;11261;52.456;10.850;2023-05-21T04:45:51;6.25;;;4.32;;
22191;SDS011;11261;52.456;10.850;2023-05-21T04:48:21;8.95;;;4.85;;
22191;SDS011;11261;52.456;10.850;2023-05-21T04:50:51;6.55;;;4.47;;
22191;SDS011;11261;52.456;10.850;2023-05-21T04:53:21;10.48;;;4.80;;
22191;SDS011;11261;52.456;10.850;2023-05-21T04:55:51;8.07;;;4.85;;
22191;SDS011;11261;52.456;10.850;2023-05-21T04:58:19;10.20;;;4.97;;
22191;SDS011;11261;52.456;10.850;2023-05-21T05:00:47;8.68;;;4.65;;
22191;SDS011;11261;52.456;10.850;2023-05-21T05:03:17;5.88;;;4.43;;
22191;SDS011;11261;52.456;10.850;2023-05-21T05:05:47;6.75;;;4.50;;
22191;SDS011;11261;52.456;10.850;2023-05-21T05:08:15;6.95;;;5.15;;
22191;SDS011;11261;52.456;10.850;2023-05-21T05:10:43;9.18;;;4.68;;
22191;SDS011;11261;52.456;10.850;2023-05-21T05:13:11;7.60;;;4.35;;
22191;SDS011;11261;52.456;10.850;2023-05-21T05:15:40;7.85;;;4.22;;
22191;SDS011;11261;52.456;10.850;2023-05-21T05:18:08;9.43;;;4.70;;
22191;SDS011;11261;52.456;10.850;2023-05-21T05:20:37;10.85;;;5.05;;
22191;SDS011;11261;52.456;10.850;2023-05-21T05:23:07;7.70;;;5.18;;
22191;SDS011;11261;52.456;10.850;2023-05-21T05:25:35;7.85;;;5.38;;
22191;SDS011;11261;52.456;10.850;2023-05-21T05:28:04;7.40;;;5.72;;
22191;SDS011;11261;52.456;10.850;2023-05-21T05:30:32;8.27;;;5.57;;
22191;SDS011;11261;52.456;10.850;2023-05-21T05:33:01;9.27;;;5.90;;
22191;SDS011;11261;52.456;10.850;2023-05-21T05:35:29;7.97;;;4.70;;
22191;SDS011;11261;52.456;10.850;2023-05-21T05:37:58;10.63;;;6.15;;
22191;SDS011;11261;52.456;10.850;2023-05-21T05:40:27;8.02;;;5.78;;
22191;SDS011;11261;52.456;10.850;2023-05-21T05:42:56;10.45;;;6.63;;
22191;SDS011;11261;52.456;10.850;2023-05-21T05:45:24;8.38;;;6.32;;
22191;SDS011;11261;52.456;10.850;2023-05-21T05:47:52;9.40;;;6.18;;
22191;SDS011;11261;52.456;10.850;2023-05-21T05:50:21;8.52;;;5.88;;
22191;SDS011;11261;52.456;10.850;2023-05-21T05:52:49;11.90;;;6.35;;
22191;SDS011;11261;52.456;10.850;2023-05-21T05:55:17;9.18;;;5.20;;
22191;SDS011;11261;52.456;10.850;2023-05-21T05:57:48;11.55;;;6.18;;
22191;SDS011;11261;52.456;10.850;2023-05-21T06:00:16;11.10;;;5.97;;
22191;SDS011;11261;52.456;10.850;2023-05-21T06:02:45;10.40;;;7.20;;
22191;SDS011;11261;52.456;10.850;2023-05-21T06:05:13;11.73;;;7.97;;
22191;SDS011;11261;52.456;10.850;2023-05-21T06:07:42;12.02;;;8.10;;
22191;SDS011;11261;52.456;10.850;2023-05-21T06:10:11;10.98;;;6.57;;
22191;SDS011;11261;52.456;10.850;2023-05-21T06:12:39;13.10;;;9.20;;
22191;SDS011;11261;52.456;10.850;2023-05-21T06:15:09;11.77;;;8.13;;
22191;SDS011;11261;52.456;10.850;2023-05-21T06:17:40;12.60;;;7.80;;
22191;SDS011;11261;52.456;10.850;2023-05-21T06:20:08;11.95;;;7.90;;
22191;SDS011;11261;52.456;10.850;2023-05-21T06:22:37;12.32;;;7.75;;
22191;SDS011;11261;52.456;10.850;2023-05-21T06:25:06;12.55;;;7.97;;
22191;SDS011;11261;52.456;10.850;2023-05-21T06:27:36;11.32;;;7.40;;
22191;SDS011;11261;52.456;10.850;2023-05-21T06:30:05;10.82;;;8.10;;
22191;SDS011;11261;52.456;10.850;2023-05-21T06:32:35;10.73;;;7.63;;
22191;SDS011;11261;52.456;10.850;2023-05-21T06:35:03;11.73;;;7.97;;
22191;SDS011;11261;52.456;10.850;2023-05-21T06:37:32;12.65;;;9.02;;
22191;SDS011;11261;52.456;10.850;2023-05-21T06:40:01;14.40;;;8.32;;
22191;SDS011;11261;52.456;10.850;2023-05-21T06:42:29;11.25;;;7.80;;
22191;SDS011;11261;52.456;10.850;2023-05-21T06:44:57;14.85;;;9.23;;
22191;SDS011;11261;52.456;10.850;2023-05-21T06:47:26;13.52;;;8.98;;
22191;SDS011;11261;52.456;10.850;2023-05-21T06:49:55;12.60;;;8.82;;
22191;SDS011;11261;52.456;10.850;2023-05-21T06:52:25;14.05;;;9.02;;
22191;SDS011;11261;52.456;10.850;2023-05-21T06:54:54;14.93;;;8.70;;
22191;SDS011;11261;52.456;10.850;2023-05-21T06:57:22;15.43;;;10.13;;
22191;SDS011;11261;52.456;10.850;2023-05-21T06:59:50;14.27;;;9.02;;
22191;SDS011;11261;52.456;10.850;2023-05-21T07:02:18;15.60;;;10.70;;
22191;SDS011;11261;52.456;10.850;2023-05-21T07:04:47;14.80;;;10.63;;
22191;SDS011;11261;52.456;10.850;2023-05-21T07:07:16;21.25;;;12.10;;
22191;SDS011;11261;52.456;10.850;2023-05-21T07:09:44;17.58;;;12.68;;
22191;SDS011;11261;52.456;10.850;2023-05-21T07:12:13;18.10;;;12.93;;
22191;SDS011;11261;52.456;10.850;2023-05-21T07:14:41;18.48;;;15.02;;
22191;SDS011;11261;52.456;10.850;2023-05-21T07:17:10;16.25;;;13.27;;
22191;SDS011;11261;52.456;10.850;2023-05-21T07:19:38;17.45;;;11.95;;
22191;SDS011;11261;52.456;10.850;2023-05-21T07:22:07;19.60;;;12.68;;
22191;SDS011;11261;52.456;10.850;2023-05-21T07:24:36;18.17;;;13.07;;
22191;SDS011;11261;52.456;10.850;2023-05-21T07:27:04;17.90;;;12.68;;
22191;SDS011;11261;52.456;10.850;2023-05-21T07:29:50;16.27;;;10.77;;
22191;SDS011;11261;52.456;10.850;2023-05-21T07:32:18;16.95;;;12.13;;
22191;SDS011;11261;52.456;10.850;2023-05-21T07:34:47;16.00;;;11.90;;
22191;SDS011;11261;52.456;10.850;2023-05-21T07:37:18;17.92;;;13.23;;
22191;SDS011;11261;52.456;10.850;2023-05-21T07:39:47;16.27;;;12.88;;
22191;SDS011;11261;52.456;10.850;2023-05-21T07:42:16;20.40;;;12.98;;
22191;SDS011;11261;52.456;10.850;2023-05-21T07:44:44;18.13;;;11.80;;
22191;SDS011;11261;52.456;10.850;2023-05-21T07:47:12;15.50;;;11.85;;
22191;SDS011;11261;52.456;10.850;2023-05-21T07:49:42;16.63;;;13.05;;
22191;SDS011;11261;52.456;10.850;2023-05-21T07:52:10;16.88;;;11.80;;
22191;SDS011;11261;52.456;10.850;2023-05-21T07:54:40;16.58;;;11.02;;
22191;SDS011;11261;52.456;10.850;2023-05-21T07:57:10;15.45;;;10.88;;
22191;SDS011;11261;52.456;10.850;2023-05-21T07:59:38;13.93;;;11.13;;
22191;SDS011;11261;52.456;10.850;2023-05-21T08:02:06;16.05;;;10.57;;
22191;SDS011;11261;52.456;10.850;2023-05-21T08:04:34;18.70;;;10.45;;
22191;SDS011;11261;52.456;10.850;2023-05-21T08:07:06;16.95;;;10.40;;
22191;SDS011;11261;52.456;10.850;2023-05-21T08:09:35;14.90;;;10.85;;
22191;SDS011;11261;52.456;10.850;2023-05-21T08:12:03;15.65;;;11.52;;
22191;SDS011;11261;52.456;10.850;2023-05-21T08:14:33;14.77;;;10.73;;
22191;SDS011;11261;52.456;10.850;2023-05-21T08:17:02;14.90;;;10.80;;
22191;SDS011;11261;52.456;10.850;2023-05-21T08:19:30;18.05;;;11.45;;
22191;SDS011;11261;52.456;10.850;2023-05-21T08:21:59;16.30;;;11.30;;
22191;SDS011;11261;52.456;10.850;2023-05-21T08:24:27;16.35;;;11.00;;
22191;SDS011;11261;52.456;10.850;2023-05-21T08:26:55;13.32;;;10.50;;
22191;SDS011;11261;52.456;10.850;2023-05-21T08:29:23;15.27;;;11.10;;
22191;SDS011;11261;52.456;10.850;2023-05-21T08:31:53;16.17;;;11.50;;
22191;SDS011;11261;52.456;10.850;2023-05-21T08:34:21;14.68;;;10.75;;
22191;SDS011;11261;52.456;10.850;2023-05-21T08:36:50;19.85;;;12.27;;
22191;SDS011;11261;52.456;10.850;2023-05-21T08:39:19;14.93;;;12.43;;
22191;SDS011;11261;52.456;10.850;2023-05-21T08:41:47;16.40;;;11.60;;
22191;SDS011;11261;52.456;10.850;2023-05-21T08:44:22;15.27;;;10.80;;
22191;SDS011;11261;52.456;10.850;2023-05-21T08:46:55;17.25;;;11.80;;
22191;SDS011;11261;52.456;10.850;2023-05-21T08:49:25;13.57;;;11.57;;
22191;SDS011;11261;52.456;10.850;2023-05-21T08:51:57;17.80;;;11.32;;
22191;SDS011;11261;52.456;10.850;2023-05-21T08:54:26;13.63;;;10.85;;
22191;SDS011;11261;52.456;10.850;2023-05-21T08:56:54;15.73;;;11.32;;
22191;SDS011;11261;52.456;10.850;2023-05-21T08:59:24;16.38;;;12.30;;
22191;SDS011;11261;52.456;10.850;2023-05-21T09:01:55;18.23;;;12.75;;
22191;SDS011;11261;52.456;10.850;2023-05-21T09:04:25;18.15;;;12.35;;
22191;SDS011;11261;52.456;10.850;2023-05-21T09:06:55;15.45;;;10.90;;
22191;SDS011;11261;52.456;10.850;2023-05-21T09:09:26;15.68;;;11.18;;
22191;SDS011;11261;52.456;10.850;2023-05-21T09:12:02;13.73;;;10.25;;
22191;SDS011;11261;52.456;10.850;2023-05-21T09:14:32;15.85;;;11.43;;
22191;SDS011;11261;52.456;10.850;2023-05-21T09:17:02;15.63;;;10.88;;
22191;SDS011;11261;52.456;10.850;2023-05-21T09:19:30;13.55;;;10.10;;
22191;SDS011;11261;52.456;10.850;2023-05-21T09:22:00;16.17;;;12.20;;
22191;SDS011;11261;52.456;10.850;2023-05-21T09:24:29;13.18;;;9.40;;
22191;SDS011;11261;52.456;10.850;2023-05-21T09:27:01;15.73;;;10.07;;
22191;SDS011;11261;52.456;10.850;2023-05-21T09:29:32;14.43;;;10.07;;
22191;SDS011;11261;52.456;10.850;2023-05-21T09:32:06;14.52;;;10.40;;
22191;SDS011;11261;52.456;10.850;2023-05-21T09:34:35;14.75;;;10.25;;
22191;SDS011;11261;52.456;10.850;2023-05-21T09:37:04;14.40;;;10.32;;
22191;SDS011;11261;52.456;10.850;2023-05-21T09:39:52;15.32;;;10.75;;
22191;SDS011;11261;52.456;10.850;2023-05-21T09:42:21;14.52;;;10.43;;
22191;SDS011;11261;52.456;10.850;2023-05-21T09:44:49;14.93;;;10.32;;
22191;SDS011;11261;52.456;10.850;2023-05-21T09:47:20;13.70;;;10.57;;
22191;SDS011;11261;52.456;10.850;2023-05-21T09:49:48;14.07;;;10.48;;
22191;SDS011;11261;52.456;10.850;2023-05-21T09:52:22;12.85;;;10.02;;
22191;SDS011;11261;52.456;10.850;2023-05-21T09:54:51;12.55;;;9.73;;
22191;SDS011;11261;52.456;10.850;2023-05-21T09:57:23;12.20;;;10.10;;
22191;SDS011;11261;52.456;10.850;2023-05-21T09:59:52;14.18;;;10.82;;
22191;SDS011;11261;52.456;10.850;2023-05-21T10:02:22;12.90;;;9.32;;
22191;SDS011;11261;52.456;10.850;2023-05-21T10:04:52;14.00;;;9.88;;
22191;SDS011;11261;52.456;10.850;2023-05-21T10:07:21;11.82;;;8.65;;
22191;SDS011;11261;52.456;10.850;2023-05-21T10:09:53;13.23;;;9.18;;
22191;SDS011;11261;52.456;10.850;2023-05-21T10:12:23;12.93;;;9.55;;
22191;SDS011;11261;52.456;10.850;2023-05-21T10:14:53;12.07;;;8.50;;
22191;SDS011;11261;52.456;10.850;2023-05-21T10:17:28;13.75;;;9.65;;
22191;SDS011;11261;52.456;10.850;2023-05-21T10:19:57;13.38;;;9.90;;
22191;SDS011;11261;52.456;10.850;2023-05-21T10:22:27;14.07;;;9.90;;
22191;SDS011;11261;52.456;10.850;2023-05-21T10:24:55;12.20;;;9.35;;
22191;SDS011;11261;52.456;10.850;2023-05-21T10:27:25;16.50;;;10.13;;
22191;SDS011;11261;52.456;10.850;2023-05-21T10:29:58;13.25;;;10.27;;
22191;SDS011;11261;52.456;10.850;2023-05-21T10:32:28;12.45;;;8.80;;
22191;SDS011;11261;52.456;10.850;2023-05-21T10:34:58;15.05;;;10.38;;
22191;SDS011;11261;52.456;10.850;2023-05-21T10:37:28;14.65;;;8.95;;
22191;SDS011;11261;52.456;10.850;2023-05-21T10:39:56;12.65;;;10.07;;
22191;SDS011;11261;52.456;10.850;2023-05-21T10:42:26;11.68;;;9.50;;
22191;SDS011;11261;52.456;10.850;2023-05-21T10:45:25;14.27;;;11.05;;
22191;SDS011;11261;52.456;10.850;2023-05-21T10:48:10;14.05;;;10.25;;
22191;SDS011;11261;52.456;10.850;2023-05-21T10:50:59;13.13;;;9.77;;
22191;SDS011;11261;52.456;10.850;2023-05-21T10:57:13;11.35;;;9.30;;
22191;SDS011;11261;52.456;10.850;2023-05-21T10:59:48;12.65;;;9.68;;
22191;SDS011;11261;52.456;10.850;2023-05-21T11:02:16;14.57;;;10.23;;
22191;SDS011;11261;52.456;10.850;2023-05-21T11:04:48;11.77;;;9.98;;
22191;SDS011;11261;52.456;10.850;2023-05-21T11:10:37;11.88;;;9.77;;
22191;SDS011;11261;52.456;10.850;2023-05-21T11:13:06;15.18;;;10.57;;
22191;SDS011;11261;52.456;10.850;2023-05-21T11:21:29;11.63;;;8.60;;
22191;SDS011;11261;52.456;10.850;2023-05-21T11:24:04;13.07;;;9.95;;
22191;SDS011;11261;52.456;10.850;2023-05-21T11:29:30;13.55;;;10.38;;
22191;SDS011;11261;52.456;10.850;2023-05-21T11:32:06;13.52;;;10.18;;
22191;SDS011;11261;52.456;10.850;2023-05-21T11:34:36;12.43;;;9.75;;
22191;SDS011;11261;52.456;10.850;2023-05-21T11:37:22;11.35;;;9.13;;
22191;SDS011;11261;52.456;10.850;2023-05-21T11:40:23;13.38;;;11.25;;
22191;SDS011;11261;52.456;10.850;2023-05-21T11:42:52;12.32;;;10.20;;
22191;SDS011;11261;52.456;10.850;2023-05-21T11:45:21;10.73;;;9.32;;
22191;SDS011;11261;52.456;10.850;2023-05-21T11:47:54;13.23;;;9.82;;
22191;SDS011;11261;52.456;10.850;2023-05-21T11:50:22;10.75;;;8.82;;
22191;SDS011;11261;52.456;10.850;2023-05-21T11:52:53;13.27;;;10.25;;
22191;SDS011;11261;52.456;10.850;2023-05-21T11:55:21;12.60;;;9.18;;
22191;SDS011;11261;52.456;10.850;2023-05-21T11:57:51;14.25;;;10.30;;
22191;SDS011;11261;52.456;10.850;2023-05-21T12:00:20;13.82;;;9.02;;
22191;SDS011;11261;52.456;10.850;2023-05-21T12:02:50;13.25;;;9.38;;
22191;SDS011;11261;52.456;10.850;2023-05-21T12:05:22;11.48;;;9.23;;
22191;SDS011;11261;52.456;10.850;2023-05-21T12:07:53;9.90;;;8.60;;
22191;SDS011;11261;52.456;10.850;2023-05-21T12:10:23;12.07;;;9.82;;
22191;SDS011;11261;52.456;10.850;2023-05-21T12:12:52;14.63;;;8.68;;
22191;SDS011;11261;52.456;10.850;2023-05-21T12:15:23;12.25;;;8.25;;
22191;SDS011;11261;52.456;10.850;2023-05-21T12:17:53;10.65;;;9.18;;
22191;SDS011;11261;52.456;10.850;2023-05-21T12:20:22;9.80;;;8.57;;
22191;SDS011;11261;52.456;10.850;2023-05-21T12:22:55;10.32;;;8.13;;
22191;SDS011;11261;52.456;10.850;2023-05-21T12:25:24;10.07;;;8.32;;
22191;SDS011;11261;52.456;10.850;2023-05-21T12:27:52;9.85;;;8.73;;
22191;SDS011;11261;52.456;10.850;2023-05-21T12:30:24;10.73;;;8.85;;
22191;SDS011;11261;52.456;10.850;2023-05-21T12:32:52;10.95;;;8.70;;
22191;SDS011;11261;52.456;10.850;2023-05-21T12:35:25;10.73;;;9.60;;
22191;SDS011;11261;52.456;10.850;2023-05-21T12:37:55;11.38;;;9.30;;
22191;SDS011;11261;52.456;10.850;2023-05-21T12:40:33;13.38;;;9.00;;
22191;SDS011;11261;52.456;10.850;2023-05-21T12:43:04;11.35;;;7.78;;
22191;SDS011;11261;52.456;10.850;2023-05-21T12:45:32;9.50;;;7.80;;
22191;SDS011;11261;52.456;10.850;2023-05-21T12:48:02;10.10;;;8.27;;
22191;SDS011;11261;52.456;10.850;2023-05-21T12:50:31;10.18;;;7.57;;
22191;SDS011;11261;52.456;10.850;2023-05-21T12:53:02;11.05;;;8.77;;
22191;SDS011;11261;52.456;10.850;2023-05-21T12:55:30;10.75;;;8.00;;
22191;SDS011;11261;52.456;10.850;2023-05-21T12:58:00;11.02;;;8.60;;
22191;SDS011;11261;52.456;10.850;2023-05-21T13:00:48;9.80;;;7.88;;
22191;SDS011;11261;52.456;10.850;2023-05-21T13:03:17;9.77;;;8.18;;
22191;SDS011;11261;52.456;10.850;2023-05-21T13:06:04;9.40;;;7.72;;
22191;SDS011;11261;52.456;10.850;2023-05-21T13:08:36;10.07;;;8.00;;
22191;SDS011;11261;52.456;10.850;2023-05-21T13:11:05;9.73;;;7.85;;
22191;SDS011;11261;52.456;10.850;2023-05-21T13:13:33;9.10;;;7.90;;
22191;SDS011;11261;52.456;10.850;2023-05-21T13:16:01;9.20;;;8.30;;
22191;SDS011;11261;52.456;10.850;2023-05-21T13:18:29;10.50;;;7.45;;
22191;SDS011;11261;52.456;10.850;2023-05-21T13:20:58;9.70;;;7.47;;
22191;SDS011;11261;52.456;10.850;2023-05-21T13:23:26;10.00;;;7.47;;
22191;SDS011;11261;52.456;10.850;2023-05-21T13:25:56;8.27;;;7.13;;
22191;SDS011;11261;52.456;10.850;2023-05-21T13:28:24;8.77;;;7.63;;
22191;SDS011;11261;52.456;10.850;2023-05-21T13:30:53;10.32;;;8.10;;
22191;SDS011;11261;52.456;10.850;2023-05-21T13:33:21;8.93;;;7.40;;
22191;SDS011;11261;52.456;10.850;2023-05-21T13:35:50;10.05;;;7.47;;
22191;SDS011;11261;52.456;10.850;2023-05-21T13:38:18;12.02;;;8.80;;
22191;SDS011;11261;52.456;10.850;2023-05-21T13:40:47;8.60;;;7.55;;
22191;SDS011;11261;52.456;10.850;2023-05-21T13:43:16;10.05;;;8.27;;
22191;SDS011;11261;52.456;10.850;2023-05-21T13:45:46;10.43;;;7.90;;
22191;SDS011;11261;52.456;10.850;2023-05-21T13:48:15;12.93;;;8.50;;
22191;SDS011;11261;52.456;10.850;2023-05-21T13:50:44;10.20;;;7.60;;
22191;SDS011;11261;52.456;10.850;2023-05-21T13:53:12;10.63;;;8.07;;
22191;SDS011;11261;52.456;10.850;2023-05-21T13:55:41;10.35;;;9.23;;
22191;SDS011;11261;52.456;10.850;2023-05-21T13:58:09;10.07;;;7.50;;
22191;SDS011;11261;52.456;10.850;2023-05-21T14:00:39;9.23;;;7.95;;
22191;SDS011;11261;52.456;10.850;2023-05-21T14:03:08;9.88;;;7.43;;
22191;SDS011;11261;52.456;10.850;2023-05-21T14:05:36;11.02;;;7.57;;
22191;SDS011;11261;52.456;10.850;2023-05-21T14:08:05;9.02;;;7.65;;
22191;SDS011;11261;52.456;10.850;2023-05-21T14:10:33;12.55;;;8.35;;
22191;SDS011;11261;52.456;10.850;2023-05-21T14:13:02;9.88;;;7.95;;
22191;SDS011;11261;52.456;10.850;2023-05-21T14:15:46;9.15;;;7.90;;
22191;SDS011;11261;52.456;10.850;2023-05-21T14:18:14;9.48;;;7.57;;
22191;SDS011;11261;52.456;10.850;2023-05-21T14:20:42;8.68;;;7.72;;
22191;SDS011;11261;52.456;10.850;2023-05-21T14:23:11;9.23;;;8.13;;
22191;SDS011;11261;52.456;10.850;2023-05-21T14:25:39;9.05;;;7.90;;
22191;SDS011;11261;52.456;10.850;2023-05-21T14:28:08;9.82;;;8.63;;
22191;SDS011;11261;52.456;10.850;2023-05-21T14:30:37;9.93;;;8.10;;
22191;SDS011;11261;52.456;10.850;2023-05-21T14:33:07;10.73;;;8.40;;
22191;SDS011;11261;52.456;10.850;2023-05-21T14:35:35;11.93;;;8.38;;
22191;SDS011;11261;52.456;10.850;2023-05-21T14:38:04;9.90;;;8.10;;
22191;SDS011;11261;52.456;10.850;2023-05-21T14:40:32;8.93;;;8.00;;
22191;SDS011;11261;52.456;10.850;2023-05-21T14:43:00;9.73;;;7.75;;
22191;SDS011;11261;52.456;10.850;2023-05-21T14:45:29;8.55;;;7.57;;
22191;SDS011;11261;52.456;10.850;2023-05-21T14:48:00;10.07;;;8.27;;
22191;SDS011;11261;52.456;10.850;2023-05-21T14:50:35;10.55;;;7.60;;
22191;SDS011;11261;52.456;10.850;2023-05-21T14:53:03;8.85;;;7.25;;
22191;SDS011;11261;52.456;10.850;2023-05-21T14:55:32;11.18;;;7.60;;